Time;durP1;ratioP1;P1;durP2;ratioP2;P2;SDS_P1;SDS_P2;PMS_P1;PMS_P2;Temp;Humidity;BMP_temperature;BMP_pressure;BME280_temperature;BME280_humidity;BME280_pressure;Samples;Min_cycle;Max_cycle;Signal;HPM_P1;HPM_P2
2022/01/15 00:00:08;;;;;;;96.22;42.83;;;-0.90;99.90;;;;;;5005076;28;20041;-80
2022/01/15 00:02:38;;;;;;;115.28;41.17;;;-0.80;99.90;;;;;;5010523;28;20042;-81
2022/01/15 00:05:05;;;;;;;85.00;39.88;;;-0.80;99.90;;;;;;5003579;28;20472;-79
2022/01/15 00:07:31;;;;;;;126.32;43.20;;;-0.80;99.90;;;;;;4996955;28;20034;-80
2022/01/15 00:09:57;;;;;;;109.68;39.83;;;-0.80;99.90;;;;;;4995644;28;20030;-80
2022/01/15 00:12:23;;;;;;;115.57;41.53;;;-0.80;99.90;;;;;;4995611;28;20030;-80
2022/01/15 00:14:51;;;;;;;93.95;41.20;;;-0.80;99.90;;;;;;4994878;28;20050;-81
2022/01/15 00:17:33;;;;;;;99.38;42.60;;;-0.80;99.90;;;;;;4995491;28;20034;-81
2022/01/15 00:20:05;;;;;;;90.50;39.17;;;-0.80;99.90;;;;;;4995132;28;20037;-80
2022/01/15 00:22:32;;;;;;;101.60;38.85;;;-0.70;99.90;;;;;;4995555;28;20423;-80
2022/01/15 00:24:58;;;;;;;84.13;38.42;;;-0.80;99.90;;;;;;4995167;28;20051;-81
2022/01/15 00:27:24;;;;;;;104.38;41.08;;;-0.80;99.90;;;;;;4995169;28;20420;-80
2022/01/15 00:29:50;;;;;;;74.32;37.63;;;-0.80;99.90;;;;;;4993018;28;20035;-81
2022/01/15 00:32:16;;;;;;;82.78;38.45;;;-0.80;99.90;;;;;;4995728;28;20030;-80
2022/01/15 00:34:43;;;;;;;92.93;37.63;;;-0.70;99.90;;;;;;4996819;28;20062;-81
2022/01/15 00:37:09;;;;;;;96.40;39.30;;;-0.70;99.90;;;;;;4996155;28;20038;-80
2022/01/15 00:39:36;;;;;;;77.13;39.55;;;-0.70;99.90;;;;;;4994907;28;20483;-80
2022/01/15 00:42:03;;;;;;;73.60;37.53;;;-0.70;99.90;;;;;;4993943;28;20034;-81
2022/01/15 00:44:29;;;;;;;86.18;40.38;;;-0.70;99.90;;;;;;4995436;28;20038;-80
2022/01/15 00:46:56;;;;;;;87.25;40.55;;;-0.60;99.90;;;;;;4994844;28;20046;-81
2022/01/15 00:49:22;;;;;;;80.28;39.72;;;-0.70;99.90;;;;;;4994794;28;20034;-80
2022/01/15 00:51:48;;;;;;;93.57;42.63;;;-0.70;99.90;;;;;;4994338;28;20034;-80
2022/01/15 00:54:15;;;;;;;89.50;40.35;;;-0.70;99.90;;;;;;4995091;28;20030;-80
2022/01/15 00:56:41;;;;;;;90.45;42.70;;;-0.70;99.90;;;;;;4994210;28;20030;-80
2022/01/15 00:59:07;;;;;;;96.38;43.33;;;-0.60;99.90;;;;;;4993725;28;20484;-80
2022/01/15 01:01:34;;;;;;;103.20;43.92;;;-0.60;99.90;;;;;;4993281;28;20456;-81
2022/01/15 01:04:00;;;;;;;109.95;43.70;;;-0.60;99.90;;;;;;4993791;28;20369;-80
2022/01/15 01:06:26;;;;;;;98.53;42.90;;;-0.60;99.90;;;;;;4994459;28;20392;-80
2022/01/15 01:08:52;;;;;;;123.65;46.63;;;-0.60;99.90;;;;;;4993560;28;20037;-80
2022/01/15 01:11:30;;;;;;;89.60;41.83;;;-0.60;99.90;;;;;;4994288;28;20033;-81
2022/01/15 01:24:42;;;;;;;;;;;-0.60;99.90;;;;;;4993691;28;20054;-81
2022/01/15 01:27:19;;;;;;;104.78;45.35;;;-0.50;99.90;;;;;;4994150;28;20328;-80
2022/01/15 01:30:05;;;;;;;107.20;47.60;;;-0.50;99.90;;;;;;4993342;28;20037;-80
2022/01/15 01:35:07;;;;;;;116.55;49.03;;;-0.50;99.90;;;;;;4993023;28;20502;-80
2022/01/15 01:37:39;;;;;;;125.70;49.38;;;-0.50;99.90;;;;;;4993721;28;20061;-80
2022/01/15 01:40:38;;;;;;;110.07;46.85;;;-0.50;99.90;;;;;;4993410;28;20368;-80
2022/01/15 01:43:03;;;;;;;142.02;50.85;;;-0.50;99.90;;;;;;4993078;28;20055;-80
2022/01/15 01:45:29;;;;;;;113.32;47.72;;;-0.50;99.90;;;;;;4993751;28;20049;-78
2022/01/15 01:47:55;;;;;;;102.00;45.17;;;-0.50;99.90;;;;;;4991762;28;20034;-79
2022/01/15 01:50:24;;;;;;;91.22;45.85;;;-0.60;99.90;;;;;;4993451;28;20026;-80
2022/01/15 01:52:54;;;;;;;91.18;46.33;;;-0.50;99.90;;;;;;4992653;28;20030;-80
2022/01/15 01:55:22;;;;;;;96.55;47.67;;;-0.50;99.90;;;;;;4993712;28;20069;-80
2022/01/15 01:57:50;;;;;;;95.43;45.13;;;-0.50;99.90;;;;;;4992766;28;20030;-80
2022/01/15 02:00:19;;;;;;;91.25;44.53;;;-0.50;99.90;;;;;;4993799;28;20038;-79
2022/01/15 02:02:49;;;;;;;87.78;43.75;;;-0.50;99.90;;;;;;4992860;28;20472;-80
2022/01/15 02:05:15;;;;;;;79.22;41.60;;;-0.50;99.90;;;;;;4993297;28;20041;-79
2022/01/15 02:07:45;;;;;;;88.75;45.28;;;-0.50;99.90;;;;;;4993210;28;20034;-80
2022/01/15 02:10:15;;;;;;;82.32;42.55;;;-0.50;99.90;;;;;;4993503;28;20041;-80
2022/01/15 02:12:42;;;;;;;85.43;44.40;;;-0.40;99.90;;;;;;4993264;28;20033;-79
2022/01/15 02:15:20;;;;;;;87.00;49.03;;;-0.40;99.90;;;;;;4993339;28;20475;-79
2022/01/15 02:17:48;;;;;;;86.60;44.63;;;-0.40;99.90;;;;;;4992929;28;20042;-81
2022/01/15 02:25:46;;;;;;;89.93;42.50;;;-0.30;99.90;;;;;;4993690;28;20468;-80
2022/01/15 02:28:14;;;;;;;86.43;42.30;;;-0.30;99.90;;;;;;4993317;28;20045;-81
2022/01/15 02:30:40;;;;;;;83.38;39.53;;;-0.30;99.90;;;;;;4993188;28;20043;-81
2022/01/15 02:33:07;;;;;;;93.20;42.42;;;-0.30;99.90;;;;;;4992495;28;20468;-80
2022/01/15 02:35:34;;;;;;;96.10;40.78;;;-0.20;99.90;;;;;;4993048;28;20039;-80
2022/01/15 02:38:07;;;;;;;77.50;38.78;;;-0.20;99.90;;;;;;4992408;28;20033;-81
2022/01/15 02:40:35;;;;;;;70.32;37.50;;;-0.20;99.90;;;;;;4993300;28;20057;-80
2022/01/15 02:43:11;;;;;;;76.45;38.55;;;-0.20;99.90;;;;;;4994431;28;20034;-80
2022/01/15 02:45:41;;;;;;;85.10;38.35;;;-0.20;99.90;;;;;;4991996;28;20041;-80
2022/01/15 02:48:16;;;;;;;80.28;37.30;;;-0.20;99.90;;;;;;4992661;28;20387;-80
2022/01/15 02:50:44;;;;;;;82.85;38.30;;;-0.10;99.90;;;;;;4993019;28;20034;-80
2022/01/15 02:53:14;;;;;;;87.60;39.22;;;-0.20;99.90;;;;;;4991935;28;20519;-80
2022/01/15 02:55:46;;;;;;;94.10;40.78;;;-0.10;99.90;;;;;;4992810;28;20039;-80
2022/01/15 02:58:13;;;;;;;90.07;40.95;;;-0.10;99.90;;;;;;4993401;28;20034;-80
2022/01/15 03:00:39;;;;;;;76.90;35.47;;;-0.20;99.90;;;;;;4993181;28;20033;-80
2022/01/15 03:03:06;;;;;;;88.15;38.38;;;-0.10;99.90;;;;;;4975313;28;20338;-80
2022/01/15 03:05:32;;;;;;;80.35;36.72;;;-0.10;99.90;;;;;;4993485;28;20049;-80
2022/01/15 03:07:58;;;;;;;73.90;35.83;;;-0.10;99.90;;;;;;4996051;28;20037;-80
2022/01/15 03:10:24;;;;;;;92.90;40.45;;;-0.10;99.90;;;;;;4994723;28;20049;-80
2022/01/15 03:12:53;;;;;;;94.68;39.47;;;-0.10;99.90;;;;;;4995863;28;20030;-81
2022/01/15 03:15:20;;;;;;;90.22;37.88;;;-0.10;99.90;;;;;;4994869;28;20050;-81
2022/01/15 03:17:47;;;;;;;82.90;39.63;;;0.00;99.90;;;;;;4996100;28;20031;-80
2022/01/15 03:20:15;;;;;;;85.90;40.60;;;0.00;99.90;;;;;;4996330;28;20037;-81
2022/01/15 03:22:42;;;;;;;95.97;39.15;;;0.00;99.90;;;;;;4995859;28;20026;-80
2022/01/15 03:25:10;;;;;;;79.40;38.00;;;0.00;99.90;;;;;;4995769;28;20392;-81
2022/01/15 03:27:36;;;;;;;97.93;38.30;;;0.00;99.90;;;;;;4995897;28;20042;-80
2022/01/15 03:30:05;;;;;;;81.72;37.35;;;0.00;99.90;;;;;;4995126;28;20034;-80
2022/01/15 03:32:32;;;;;;;96.78;38.47;;;0.00;99.90;;;;;;4995855;28;20030;-80
2022/01/15 03:34:58;;;;;;;86.13;39.30;;;0.10;99.90;;;;;;4995017;28;20504;-80
2022/01/15 03:37:25;;;;;;;77.90;38.00;;;0.10;99.90;;;;;;4995825;28;20039;-80
2022/01/15 03:39:51;;;;;;;96.45;40.38;;;0.10;99.90;;;;;;4995170;28;20035;-81
2022/01/15 03:42:17;;;;;;;97.75;42.70;;;0.10;99.90;;;;;;4995589;28;20369;-80
2022/01/15 03:44:49;;;;;;;82.65;38.30;;;0.10;99.90;;;;;;4995839;28;20092;-80
2022/01/15 03:47:15;;;;;;;;;;;0.00;99.90;;;;;;4996145;28;20444;-81
2022/01/15 03:49:42;;;;;;;99.75;38.30;;;0.10;99.90;;;;;;4993918;28;19910;-81
2022/01/15 03:52:09;;;;;;;89.20;40.95;;;0.10;99.90;;;;;;4995018;28;20061;-81
2022/01/15 03:54:36;;;;;;;81.00;38.53;;;0.10;99.90;;;;;;4995491;28;20042;-80
2022/01/15 03:57:03;;;;;;;91.68;40.22;;;0.10;99.90;;;;;;4994608;28;20038;-81
2022/01/15 03:59:30;;;;;;;103.40;39.85;;;0.10;99.90;;;;;;4995586;28;20037;-80
2022/01/15 04:01:57;;;;;;;101.03;40.33;;;0.10;99.90;;;;;;4994726;28;20031;-81
2022/01/15 04:04:23;;;;;;;98.07;40.80;;;0.10;99.90;;;;;;4995170;28;20038;-81
2022/01/15 04:06:50;;;;;;;100.47;40.30;;;0.10;99.90;;;;;;4995351;28;20038;-81
2022/01/15 04:09:17;;;;;;;91.38;37.33;;;0.10;99.90;;;;;;4995077;28;20031;-81
2022/01/15 04:11:45;;;;;;;90.50;38.15;;;0.10;99.90;;;;;;4995338;28;20043;-81
2022/01/15 04:14:12;;;;;;;86.05;39.53;;;0.10;99.90;;;;;;4994524;28;20053;-81
2022/01/15 04:16:39;;;;;;;81.63;37.67;;;0.10;99.90;;;;;;4995214;28;20049;-81
2022/01/15 04:19:08;;;;;;;69.78;35.30;;;0.10;99.90;;;;;;4994788;28;20053;-81
2022/01/15 04:21:36;;;;;;;70.10;38.05;;;0.00;99.90;;;;;;4996332;28;20061;-80
2022/01/15 04:24:03;;;;;;;70.03;34.90;;;0.00;99.90;;;;;;4998120;28;20479;-81
2022/01/15 04:26:29;;;;;;;77.18;37.47;;;0.00;99.90;;;;;;5000128;28;20038;-80
2022/01/15 04:29:02;;;;;;;74.22;35.50;;;0.00;99.90;;;;;;5000472;28;20030;-81
2022/01/15 04:31:36;;;;;;;69.72;36.65;;;0.00;99.90;;;;;;5002317;28;20027;-80
2022/01/15 04:34:02;;;;;;;90.05;37.90;;;0.00;99.90;;;;;;4994584;28;20054;-81
2022/01/15 04:36:29;;;;;;;84.40;38.22;;;0.00;99.90;;;;;;4995400;28;20038;-81
2022/01/15 04:38:55;;;;;;;71.45;34.97;;;0.00;99.90;;;;;;4995311;28;20041;-81
2022/01/15 04:41:21;;;;;;;84.43;37.42;;;0.00;99.90;;;;;;4995056;28;20038;-80
2022/01/15 04:43:47;;;;;;;64.20;35.55;;;0.00;99.90;;;;;;4995153;28;20037;-80
2022/01/15 04:46:13;;;;;;;88.63;38.03;;;0.00;99.90;;;;;;4994914;28;20041;-80
2022/01/15 04:48:40;;;;;;;75.07;36.80;;;0.00;99.90;;;;;;4994853;28;20063;-80
2022/01/15 04:51:06;;;;;;;65.45;36.38;;;0.00;99.90;;;;;;4993985;28;20026;-82
2022/01/15 04:53:32;;;;;;;64.35;35.17;;;0.10;99.90;;;;;;4994846;28;20034;-80
2022/01/15 04:55:59;;;;;;;68.65;36.30;;;0.00;99.90;;;;;;4994192;28;20042;-80
2022/01/15 04:58:27;;;;;;;79.80;36.38;;;0.00;99.90;;;;;;4994849;28;20045;-79
2022/01/15 05:00:54;;;;;;;65.45;35.65;;;0.00;99.90;;;;;;4993988;28;20030;-80
2022/01/15 05:03:20;;;;;;;63.85;35.38;;;0.00;99.90;;;;;;4994707;28;20038;-80
2022/01/15 05:05:46;;;;;;;67.53;34.65;;;0.00;99.90;;;;;;4994753;28;20030;-80
2022/01/15 05:08:13;;;;;;;67.70;36.38;;;0.00;99.90;;;;;;4993630;28;20033;-80
2022/01/15 05:10:45;;;;;;;75.45;38.97;;;0.00;99.90;;;;;;4994238;28;20038;-79
2022/01/15 05:13:14;;;;;;;65.00;36.42;;;0.00;99.90;;;;;;4993437;28;20038;-80
2022/01/15 05:15:44;;;;;;;69.53;35.35;;;0.00;99.90;;;;;;4994234;28;20042;-79
2022/01/15 05:18:10;;;;;;;65.03;37.22;;;0.00;99.90;;;;;;4993831;28;20053;-80
2022/01/15 05:20:41;;;;;;;76.10;36.60;;;0.00;99.90;;;;;;4994169;28;20046;-80
2022/01/15 05:23:07;;;;;;;75.63;36.80;;;0.00;99.90;;;;;;4993174;28;20049;-80
2022/01/15 05:25:33;;;;;;;73.07;36.70;;;0.10;99.90;;;;;;4993544;28;20053;-80
2022/01/15 05:28:00;;;;;;;72.22;38.72;;;0.10;99.90;;;;;;4991978;28;20468;-80
2022/01/15 05:30:26;;;;;;;66.85;34.58;;;0.10;99.90;;;;;;4992881;28;20030;-80
2022/01/15 05:32:52;;;;;;;76.57;40.33;;;0.00;99.90;;;;;;4992330;28;20046;-79
2022/01/15 05:35:25;;;;;;;84.32;37.67;;;0.10;99.90;;;;;;4991969;28;20034;-80
2022/01/15 05:37:59;;;;;;;72.40;37.95;;;0.10;99.90;;;;;;4994006;28;20353;-80
2022/01/15 05:40:27;;;;;;;76.35;37.92;;;0.10;99.90;;;;;;4993693;28;20026;-80
2022/01/15 05:42:53;;;;;;;82.18;37.88;;;0.10;99.90;;;;;;4993322;28;20053;-80
2022/01/15 05:45:28;;;;;;;80.43;37.72;;;0.10;99.90;;;;;;4993241;28;20041;-80
2022/01/15 05:47:54;;;;;;;80.57;35.40;;;0.00;99.90;;;;;;4992534;28;20045;-80
2022/01/15 05:50:21;;;;;;;82.05;37.88;;;0.10;99.90;;;;;;4993251;28;20484;-80
2022/01/15 05:52:47;;;;;;;95.25;40.08;;;0.10;99.90;;;;;;4994782;28;20037;-80
2022/01/15 05:55:13;;;;;;;86.47;39.03;;;0.10;99.90;;;;;;4992977;28;20031;-80
2022/01/15 05:57:40;;;;;;;81.57;39.40;;;0.10;99.90;;;;;;4993232;28;20026;-80
2022/01/15 06:00:07;;;;;;;90.38;40.42;;;0.00;99.90;;;;;;4992975;28;20030;-80
2022/01/15 06:02:39;;;;;;;89.50;38.10;;;0.00;99.90;;;;;;4999964;28;20069;-80
2022/01/15 06:05:06;;;;;;;85.45;35.45;;;0.10;99.90;;;;;;4992928;28;20053;-79
2022/01/15 06:07:32;;;;;;;84.63;39.17;;;0.10;99.90;;;;;;4993027;28;20045;-80
2022/01/15 06:09:58;;;;;;;79.60;38.00;;;0.10;99.90;;;;;;4993097;28;20042;-80
2022/01/15 06:12:30;;;;;;;82.47;37.22;;;0.00;99.90;;;;;;4993603;28;20030;-80
2022/01/15 06:14:57;;;;;;;88.10;38.67;;;0.00;99.90;;;;;;4993448;28;20031;-81
2022/01/15 06:17:24;;;;;;;70.00;36.20;;;0.10;99.90;;;;;;4991706;28;20054;-80
2022/01/15 06:19:50;;;;;;;90.30;37.85;;;0.10;99.90;;;;;;4993372;28;20045;-80
2022/01/15 06:22:17;;;;;;;93.63;39.47;;;0.10;99.90;;;;;;4992394;28;20037;-80
2022/01/15 06:24:43;;;;;;;91.03;38.30;;;0.10;99.90;;;;;;4991683;28;20157;-80
2022/01/15 06:27:11;;;;;;;82.20;37.20;;;0.10;99.90;;;;;;4992697;28;20034;-80
2022/01/15 06:29:39;;;;;;;82.03;36.88;;;0.10;99.90;;;;;;4993067;28;20030;-80
2022/01/15 06:32:05;;;;;;;89.30;35.78;;;0.10;99.90;;;;;;4993725;28;20383;-80
2022/01/15 06:34:32;;;;;;;91.90;37.55;;;0.10;99.90;;;;;;4993587;28;20041;-80
2022/01/15 06:36:58;;;;;;;83.68;36.55;;;0.10;99.90;;;;;;4991656;28;20126;-80
2022/01/15 06:39:24;;;;;;;81.93;36.42;;;0.20;99.90;;;;;;4993430;28;20464;-80
2022/01/15 06:41:50;;;;;;;88.25;36.03;;;0.10;99.90;;;;;;4997102;28;20052;-80
2022/01/15 06:44:17;;;;;;;81.45;36.10;;;0.20;99.90;;;;;;4996623;28;20464;-80
2022/01/15 06:46:43;;;;;;;79.75;36.60;;;0.20;99.90;;;;;;4996894;28;20035;-79
2022/01/15 06:49:10;;;;;;;75.97;34.03;;;0.10;99.90;;;;;;4996280;28;20133;-80
2022/01/15 06:51:36;;;;;;;89.43;35.78;;;0.20;99.90;;;;;;4997024;28;20034;-80
2022/01/15 06:54:02;;;;;;;87.78;38.10;;;0.20;99.90;;;;;;4996739;28;20026;-80
2022/01/15 06:56:28;;;;;;;87.90;40.70;;;0.30;99.90;;;;;;4996658;28;20046;-80
2022/01/15 06:58:54;;;;;;;89.90;37.92;;;0.20;99.90;;;;;;4996771;28;20030;-80
2022/01/15 07:01:21;;;;;;;94.47;40.20;;;0.20;99.90;;;;;;4994317;28;20495;-80
2022/01/15 07:03:47;;;;;;;89.63;37.13;;;0.20;99.90;;;;;;4996859;28;20042;-80
2022/01/15 07:06:13;;;;;;;96.72;36.42;;;0.20;99.90;;;;;;4996361;28;20041;-80
2022/01/15 07:08:39;;;;;;;88.60;37.13;;;0.20;99.90;;;;;;4996615;28;20039;-80
2022/01/15 07:11:06;;;;;;;94.82;40.92;;;0.20;99.90;;;;;;4995676;28;20038;-80
2022/01/15 07:13:33;;;;;;;89.38;38.75;;;0.20;99.90;;;;;;4996425;28;20034;-80
2022/01/15 07:16:00;;;;;;;87.25;35.85;;;0.20;99.90;;;;;;4996846;28;20047;-80
2022/01/15 07:18:26;;;;;;;67.90;35.45;;;0.20;99.90;;;;;;4996495;28;20038;-80
2022/01/15 07:20:53;;;;;;;84.75;37.50;;;0.20;99.90;;;;;;4995410;28;20026;-80
2022/01/15 07:23:19;;;;;;;81.53;35.13;;;0.20;99.90;;;;;;4993488;28;20045;-80
2022/01/15 07:25:46;;;;;;;77.15;34.17;;;0.20;99.90;;;;;;4996492;28;20046;-80
2022/01/15 07:28:12;;;;;;;66.68;34.47;;;0.30;99.90;;;;;;4994189;28;20090;-80
2022/01/15 07:30:39;;;;;;;79.72;36.03;;;0.30;99.90;;;;;;4995976;28;20042;-80
2022/01/15 07:33:05;;;;;;;82.65;34.47;;;0.30;99.90;;;;;;4995787;28;20037;-80
2022/01/15 07:35:31;;;;;;;67.63;31.30;;;0.30;99.90;;;;;;4996337;28;20392;-80
2022/01/15 07:37:58;;;;;;;84.35;37.00;;;0.40;99.90;;;;;;4996512;28;20034;-80
2022/01/15 07:40:25;;;;;;;69.88;34.25;;;0.30;99.90;;;;;;4995434;28;20361;-80
2022/01/15 07:42:51;;;;;;;81.20;38.72;;;0.30;99.90;;;;;;4995851;28;20042;-80
2022/01/15 07:45:18;;;;;;;86.72;46.28;;;0.40;99.90;;;;;;4995101;28;20392;-80
2022/01/15 07:47:44;;;;;;;94.47;46.35;;;0.40;99.90;;;;;;4994790;28;20509;-80
2022/01/15 07:50:14;;;;;;;69.90;34.28;;;0.40;99.90;;;;;;4994821;28;20047;-81
2022/01/15 07:52:41;;;;;;;65.80;32.50;;;0.40;99.90;;;;;;4995630;28;20030;-81
2022/01/15 07:55:08;;;;;;;76.63;37.95;;;0.40;99.90;;;;;;4995408;28;20357;-81
2022/01/15 07:57:34;;;;;;;75.80;35.25;;;0.40;99.90;;;;;;4995777;28;20057;-81
2022/01/15 08:00:00;;;;;;;83.95;34.35;;;0.40;99.90;;;;;;4995707;28;20387;-81
2022/01/15 08:02:26;;;;;;;79.00;34.30;;;0.40;99.90;;;;;;4994799;28;20030;-81
2022/01/15 08:04:53;;;;;;;77.30;33.53;;;0.40;99.90;;;;;;4995625;28;20030;-81
2022/01/15 08:07:19;;;;;;;88.35;37.40;;;0.40;99.90;;;;;;4993645;28;20053;-81
2022/01/15 08:09:45;;;;;;;91.95;37.25;;;0.40;99.90;;;;;;4994337;28;20039;-81
2022/01/15 08:12:12;;;;;;;75.18;34.53;;;0.40;99.90;;;;;;4994859;28;20027;-81
2022/01/15 08:14:38;;;;;;;88.10;34.13;;;0.40;99.90;;;;;;4995394;28;20034;-80
2022/01/15 08:17:04;;;;;;;78.90;34.13;;;0.50;99.90;;;;;;4994856;28;20042;-80
2022/01/15 08:19:30;;;;;;;78.63;35.80;;;0.50;99.90;;;;;;4995283;28;20034;-81
2022/01/15 08:21:58;;;;;;;69.18;35.05;;;0.50;99.90;;;;;;4995269;28;20387;-80
2022/01/15 08:24:24;;;;;;;70.45;34.13;;;0.50;99.90;;;;;;4994683;28;20051;-81
2022/01/15 08:26:51;;;;;;;77.45;33.42;;;0.50;99.90;;;;;;4995360;28;20034;-81
2022/01/15 08:29:18;;;;;;;67.35;32.33;;;0.50;99.90;;;;;;4994434;28;20483;-81
2022/01/15 08:31:44;;;;;;;68.50;31.67;;;0.60;99.90;;;;;;4995449;28;20034;-79
2022/01/15 08:34:11;;;;;;;79.30;32.47;;;0.50;99.90;;;;;;4994674;28;20486;-80
2022/01/15 08:36:37;;;;;;;64.05;32.58;;;0.50;99.90;;;;;;4994924;28;20041;-80
2022/01/15 08:39:07;;;;;;;70.03;34.20;;;0.50;99.90;;;;;;4995480;28;20475;-80
2022/01/15 08:41:35;;;;;;;72.78;33.42;;;0.60;99.90;;;;;;4994139;28;20049;-80
2022/01/15 08:44:01;;;;;;;79.15;34.78;;;0.60;99.90;;;;;;4994871;28;20042;-79
2022/01/15 08:46:27;;;;;;;82.75;34.80;;;0.60;99.90;;;;;;4994413;28;20038;-80
2022/01/15 08:48:54;;;;;;;72.75;33.55;;;0.60;99.90;;;;;;4995353;28;20383;-81
2022/01/15 08:51:20;;;;;;;75.78;33.60;;;0.60;99.90;;;;;;4996700;28;20521;-80
2022/01/15 08:53:46;;;;;;;78.05;32.05;;;0.70;99.90;;;;;;4998854;28;20038;-82
2022/01/15 08:56:13;;;;;;;71.63;34.55;;;0.70;99.90;;;;;;4999202;28;20042;-79
2022/01/15 08:58:39;;;;;;;72.05;30.92;;;0.70;99.90;;;;;;5000118;28;20053;-81
2022/01/15 09:01:07;;;;;;;65.82;30.52;;;0.70;99.90;;;;;;4998958;28;20029;-79
2022/01/15 09:03:35;;;;;;;67.90;32.70;;;0.60;99.90;;;;;;4992963;28;20061;-79
2022/01/15 09:06:02;;;;;;;70.28;32.60;;;0.70;99.90;;;;;;4993249;28;20038;-80
2022/01/15 09:08:29;;;;;;;65.78;32.80;;;0.70;99.90;;;;;;4994194;28;20034;-80
2022/01/15 09:10:55;;;;;;;63.67;31.02;;;0.80;99.90;;;;;;4994670;28;20030;-80
2022/01/15 09:13:21;;;;;;;61.00;31.48;;;0.80;99.90;;;;;;4993880;28;20030;-80
2022/01/15 09:15:49;;;;;;;67.28;33.53;;;0.80;99.90;;;;;;4994193;28;20050;-80
2022/01/15 09:18:16;;;;;;;71.38;35.67;;;0.80;99.90;;;;;;4992312;28;20063;-80
2022/01/15 09:20:42;;;;;;;72.90;34.58;;;0.80;99.90;;;;;;4994445;28;20034;-80
2022/01/15 09:23:10;;;;;;;76.82;34.40;;;0.80;99.90;;;;;;4993871;28;20387;-80
2022/01/15 09:25:36;;;;;;;87.78;34.75;;;0.90;99.90;;;;;;4994391;28;20034;-80
2022/01/15 09:30:47;;;;;;;68.80;34.28;;;0.90;99.90;;;;;;4994257;28;20038;-81
2022/01/15 09:33:15;;;;;;;57.50;32.88;;;0.90;99.90;;;;;;4993612;28;20357;-80
2022/01/15 09:35:41;;;;;;;67.30;35.42;;;0.90;99.90;;;;;;4993818;28;20057;-81
2022/01/15 09:38:08;;;;;;;58.10;33.08;;;0.90;99.90;;;;;;4992857;28;20042;-81
2022/01/15 09:40:35;;;;;;;60.17;30.17;;;1.00;99.90;;;;;;4993918;28;20030;-82
2022/01/15 09:43:02;;;;;;;69.53;33.75;;;1.10;99.90;;;;;;4993920;28;20045;-81
2022/01/15 09:45:29;;;;;;;63.00;30.88;;;1.10;99.90;;;;;;4993123;28;20468;-81
2022/01/15 09:48:00;;;;;;;62.22;31.48;;;1.10;99.90;;;;;;4994266;28;20057;-81
2022/01/15 09:50:29;;;;;;;42.63;24.10;;;1.20;99.90;;;;;;4993310;28;20034;-80
2022/01/15 09:52:56;;;;;;;49.50;28.98;;;1.10;99.90;;;;;;4994265;28;20038;-80
2022/01/15 09:55:23;;;;;;;63.35;32.83;;;1.30;99.90;;;;;;4993429;28;20034;-81
2022/01/15 09:57:50;;;;;;;60.13;31.63;;;1.20;99.90;;;;;;4993683;28;20042;-80
2022/01/15 10:00:19;;;;;;;56.50;31.77;;;1.10;99.90;;;;;;4996811;28;20031;-81
2022/01/15 10:02:47;;;;;;;57.38;29.85;;;1.20;99.90;;;;;;4995828;28;20030;-81
2022/01/15 10:05:14;;;;;;;61.85;30.00;;;1.30;99.90;;;;;;4992249;28;20049;-82
2022/01/15 10:08:01;;;;;;;50.70;26.63;;;1.30;99.90;;;;;;4994108;28;20061;-81
2022/01/15 10:10:30;;;;;;;54.47;28.08;;;1.30;99.90;;;;;;4992025;28;20037;-82
2022/01/15 10:13:17;;;;;;;58.50;29.83;;;1.40;99.90;;;;;;4992584;28;20038;-81
2022/01/15 10:15:46;;;;;;;56.28;31.38;;;1.40;99.90;;;;;;4993524;28;20038;-81
2022/01/15 10:18:22;;;;;;;56.28;30.25;;;1.40;99.90;;;;;;4993055;28;20049;-81
2022/01/15 10:20:49;;;;;;;66.43;30.23;;;1.50;99.90;;;;;;4993395;28;20388;-82
2022/01/15 10:23:20;;;;;;;58.35;27.05;;;1.40;99.90;;;;;;4992387;28;20033;-81
2022/01/15 10:26:06;;;;;;;;;;;1.50;99.90;;;;;;4993762;28;20038;-81
2022/01/15 10:29:08;;;;;;;58.20;29.75;;;1.50;99.90;;;;;;4992732;28;20108;-82
2022/01/15 10:31:40;;;;;;;54.38;28.15;;;1.60;99.90;;;;;;4913628;29;20157;-82
2022/01/15 10:34:29;;;;;;;47.05;27.13;;;1.70;99.90;;;;;;4980538;28;20414;-82
2022/01/15 10:37:11;;;;;;;45.80;25.70;;;1.60;99.90;;;;;;4993102;28;20069;-81
2022/01/15 10:39:37;;;;;;;41.38;24.33;;;1.70;99.90;;;;;;4992428;28;20042;-83
2022/01/15 10:42:13;;;;;;;43.40;24.55;;;1.60;99.90;;;;;;4993098;28;20026;-82
2022/01/15 10:44:41;;;;;;;40.53;24.65;;;1.60;99.90;;;;;;4993130;28;20045;-83
2022/01/15 10:47:13;;;;;;;36.25;22.02;;;1.70;99.90;;;;;;4993359;28;20043;-82
2022/01/15 10:49:41;;;;;;;43.58;21.85;;;1.80;99.90;;;;;;4993053;28;20030;-82
2022/01/15 10:52:11;;;;;;;38.17;21.92;;;1.90;99.90;;;;;;4993151;28;20045;-82
2022/01/15 10:54:58;;;;;;;26.40;19.52;;;1.90;99.90;;;;;;4992697;28;20049;-82
2022/01/15 10:57:33;;;;;;;27.73;18.67;;;1.90;99.90;;;;;;4991910;28;20038;-82
2022/01/15 11:00:15;;;;;;;29.92;18.88;;;1.90;99.90;;;;;;4993434;28;20419;-82
2022/01/15 11:02:50;;;;;;;32.13;18.73;;;2.00;99.90;;;;;;4993716;28;20035;-82
2022/01/15 11:05:20;;;;;;;30.40;17.23;;;2.10;99.90;;;;;;4995387;28;20031;-82
2022/01/15 11:07:47;;;;;;;26.98;17.73;;;2.10;99.90;;;;;;4996649;28;20041;-83
2022/01/15 11:10:13;;;;;;;20.77;14.38;;;2.20;99.90;;;;;;5000764;28;20054;-82
2022/01/15 11:12:39;;;;;;;20.00;16.50;;;2.10;99.90;;;;;;4995265;28;20031;-82
2022/01/15 11:15:06;;;;;;;20.10;15.60;;;2.00;99.90;;;;;;4995916;28;20026;-82
2022/01/15 11:17:34;;;;;;;24.70;16.58;;;2.00;99.90;;;;;;4994998;28;20046;-83
2022/01/15 11:20:04;;;;;;;23.63;16.15;;;2.00;99.90;;;;;;4995506;28;20038;-82
2022/01/15 11:22:32;;;;;;;25.85;15.82;;;2.00;99.90;;;;;;4993015;28;20169;-82
2022/01/15 11:24:59;;;;;;;20.27;15.52;;;2.10;99.90;;;;;;4993895;28;20047;-83
2022/01/15 11:27:31;;;;;;;17.75;14.25;;;2.10;99.90;;;;;;4997733;28;20034;-81
2022/01/15 11:29:59;;;;;;;17.63;13.85;;;2.10;99.90;;;;;;4997879;28;20149;-82
2022/01/15 11:32:28;;;;;;;17.25;14.30;;;2.10;99.90;;;;;;4997127;28;20057;-83
2022/01/15 11:35:01;;;;;;;16.90;12.55;;;2.10;99.90;;;;;;4997555;28;20035;-82
2022/01/15 11:37:42;;;;;;;15.30;12.80;;;2.00;99.90;;;;;;4998635;28;20488;-82
2022/01/15 11:40:48;;;;;;;16.55;11.45;;;2.00;99.90;;;;;;4998123;28;20046;-82
2022/01/15 11:43:33;;;;;;;15.27;11.98;;;2.00;99.90;;;;;;4997275;28;20046;-81
2022/01/15 11:46:05;;;;;;;15.13;12.45;;;2.00;99.90;;;;;;4996772;28;20034;-80
2022/01/15 11:48:33;;;;;;;13.20;11.43;;;2.00;99.90;;;;;;4996817;28;20042;-83
2022/01/15 11:51:15;;;;;;;15.57;12.40;;;2.10;99.90;;;;;;4996330;28;20041;-83
2022/01/15 11:53:45;;;;;;;15.20;11.63;;;2.10;99.90;;;;;;4997167;28;20030;-83
2022/01/15 11:56:24;;;;;;;17.98;13.45;;;2.20;99.90;;;;;;4998038;28;20034;-84
2022/01/15 11:58:50;;;;;;;13.75;11.65;;;2.20;99.90;;;;;;4998538;28;20042;-82
2022/01/15 12:01:39;;;;;;;17.20;11.85;;;2.20;99.90;;;;;;4999305;28;20039;-83
2022/01/15 12:04:35;;;;;;;14.52;11.85;;;2.20;99.90;;;;;;4998743;28;20053;-82
2022/01/15 12:07:02;;;;;;;16.00;11.23;;;2.20;99.90;;;;;;4976592;28;20077;-84
2022/01/15 12:09:45;;;;;;;13.30;10.95;;;2.20;99.90;;;;;;4996967;28;20037;-83
2022/01/15 12:12:17;;;;;;;14.48;12.90;;;2.10;99.90;;;;;;4994959;28;20038;-83
2022/01/15 12:14:55;;;;;;;15.30;10.23;;;2.20;99.90;;;;;;4996461;28;20380;-83
2022/01/15 12:17:35;;;;;;;14.43;11.25;;;2.20;99.90;;;;;;4995688;28;20049;-83
2022/01/15 12:20:07;;;;;;;12.65;10.77;;;2.30;99.90;;;;;;4995139;28;20037;-84
2022/01/15 12:23:09;;;;;;;13.18;10.00;;;2.40;99.90;;;;;;4995922;28;20057;-83
2022/01/15 12:25:36;;;;;;;11.30;10.10;;;2.40;99.90;;;;;;4992808;28;20488;-83
2022/01/15 12:28:09;;;;;;;13.05;11.02;;;2.40;99.90;;;;;;4996793;28;20038;-83
2022/01/15 12:30:42;;;;;;;12.20;10.02;;;2.40;99.90;;;;;;4996608;28;20030;-84
2022/01/15 12:33:15;;;;;;;17.73;11.45;;;2.40;99.90;;;;;;4997581;28;20030;-83
2022/01/15 12:35:44;;;;;;;16.40;11.13;;;2.40;99.90;;;;;;4995168;28;20045;-84
2022/01/15 12:38:16;;;;;;;12.00;10.73;;;2.40;99.90;;;;;;4999183;28;20053;-83
2022/01/15 12:40:49;;;;;;;15.23;13.73;;;2.30;99.90;;;;;;4999817;28;20042;-81
2022/01/15 12:43:23;;;;;;;14.32;11.38;;;2.20;99.90;;;;;;5001854;28;20383;-82
2022/01/15 12:45:57;;;;;;;12.85;11.52;;;2.20;99.90;;;;;;4999879;28;20042;-82
2022/01/15 12:48:30;;;;;;;16.52;12.80;;;2.20;99.90;;;;;;4997563;28;20053;-83
2022/01/15 12:50:58;;;;;;;20.02;14.35;;;2.20;99.90;;;;;;4997371;28;20483;-83
2022/01/15 12:53:30;;;;;;;16.88;14.52;;;2.20;99.90;;;;;;4997185;28;20022;-82
2022/01/15 12:55:57;;;;;;;20.13;14.32;;;2.20;99.90;;;;;;4997105;28;20374;-82
2022/01/15 12:58:26;;;;;;;18.77;13.68;;;2.10;99.90;;;;;;4995096;28;20043;-83
2022/01/15 13:00:52;;;;;;;14.85;13.32;;;2.10;99.90;;;;;;4998523;28;20030;-81
2022/01/15 13:03:24;;;;;;;16.08;14.05;;;2.10;99.90;;;;;;5003081;28;20030;-83
2022/01/15 13:05:53;;;;;;;15.90;13.88;;;2.00;99.90;;;;;;4999137;28;20049;-82